Time;durP1;ratioP1;P1;durP2;ratioP2;P2;SDS_P1;SDS_P2;PMS_P1;PMS_P2;Temp;Humidity;BMP_temperature;BMP_pressure;BME280_temperature;BME280_humidity;BME280_pressure;Samples;Min_cycle;Max_cycle;Signal;HPM_P1;HPM_P2
2022/07/13 00:01:04;;;;;;;6.95;1.73;;;;;;;24.44;57.60;101176.66;6124680;23;20449;-90
2022/07/13 00:03:30;;;;;;;2.47;1.48;;;;;;;24.33;58.13;101168.00;6126105;23;20386;-90
2022/07/13 00:05:55;;;;;;;4.43;1.10;;;;;;;24.31;57.45;101171.88;6125053;23;20330;-89
2022/07/13 00:08:20;;;;;;;3.83;1.55;;;;;;;24.27;57.83;101170.53;6126320;23;20057;-88
2022/07/13 00:10:46;;;;;;;6.47;1.80;;;;;;;24.14;58.02;101169.25;6126332;23;20006;-89
2022/07/13 00:13:11;;;;;;;4.00;1.35;;;;;;;24.31;58.52;101177.25;6125902;23;20341;-89
2022/07/13 00:15:37;;;;;;;4.07;1.55;;;;;;;24.32;58.15;101178.91;6128784;23;20076;-94
2022/07/13 00:18:02;;;;;;;1.92;1.27;;;;;;;24.23;58.06;101171.91;6126021;23;20010;-89
2022/07/13 00:20:28;;;;;;;6.22;1.40;;;;;;;24.40;57.30;101170.81;6127421;23;20002;-92
2022/07/13 00:22:54;;;;;;;4.28;1.60;;;;;;;24.36;57.39;101158.75;6126096;23;20006;-92
2022/07/13 00:25:20;;;;;;;12.50;1.80;;;;;;;24.19;57.37;101152.66;6124821;23;20037;-91
2022/07/13 00:27:46;;;;;;;3.50;1.55;;;;;;;24.28;57.95;101161.50;6126645;23;20002;-90
2022/07/13 00:30:11;;;;;;;3.13;1.45;;;;;;;24.25;57.64;101157.31;6124548;23;20342;-92
2022/07/13 00:32:37;;;;;;;3.88;1.40;;;;;;;24.13;57.77;101146.16;6127012;23;20006;-92
2022/07/13 00:35:03;;;;;;;3.55;1.33;;;;;;;23.92;58.49;101145.91;6127121;23;20138;-91
2022/07/13 00:37:28;;;;;;;8.70;1.20;;;;;;;23.86;57.33;101142.06;6127543;23;20065;-92
2022/07/13 00:39:53;;;;;;;4.72;1.55;;;;;;;23.65;58.12;101147.94;6127312;23;20006;-91
2022/07/13 00:42:19;;;;;;;2.22;1.45;;;;;;;23.94;57.81;101151.94;6127725;23;20009;-91
2022/07/13 00:44:44;;;;;;;2.03;1.25;;;;;;;23.84;57.80;101151.31;6126842;23;20002;-92
2022/07/13 00:47:10;;;;;;;4.47;1.42;;;;;;;23.71;59.14;101138.38;6127568;23;20336;-90
2022/07/13 00:49:36;;;;;;;5.38;1.55;;;;;;;23.58;58.81;101144.31;6126800;23;20002;-93
2022/07/13 00:52:02;;;;;;;4.07;1.42;;;;;;;23.34;59.30;101146.03;6124562;23;20434;-91
2022/07/13 00:54:29;;;;;;;3.92;1.27;;;;;;;23.50;58.25;101141.63;6124816;23;20017;-89
2022/07/13 00:56:56;;;;;;;3.63;1.33;;;;;;;23.09;59.28;101139.03;6125693;23;20016;-91
2022/07/13 00:59:24;;;;;;;2.75;1.67;;;;;;;23.15;59.10;101135.66;6125992;23;20014;-89
2022/07/13 01:01:49;;;;;;;2.40;1.20;;;;;;;23.26;58.91;101129.97;6125634;23;20433;-89
2022/07/13 01:04:15;;;;;;;5.45;1.52;;;;;;;23.09;58.90;101131.81;6124580;23;20052;-91
2022/07/13 01:06:40;;;;;;;3.17;1.38;;;;;;;23.15;59.40;101128.47;6126387;23;20093;-91
2022/07/13 01:09:06;;;;;;;2.72;1.05;;;;;;;23.20;59.34;101129.78;6126222;23;20012;-90
2022/07/13 01:11:32;;;;;;;3.90;1.27;;;;;;;23.39;59.04;101129.44;6126013;23;20029;-90
2022/07/13 01:13:58;;;;;;;8.68;1.38;;;;;;;23.34;58.19;101121.06;6126448;23;20002;-90
2022/07/13 01:16:24;;;;;;;7.80;1.42;;;;;;;22.93;59.26;101121.91;6125919;23;20005;-91
2022/07/13 01:18:51;;;;;;;4.00;1.02;;;;;;;23.08;59.53;101124.78;6149449;23;20280;-91
2022/07/13 01:21:18;;;;;;;3.58;1.08;;;;;;;22.92;59.73;101117.56;6125683;23;20060;-91
2022/07/13 01:23:43;;;;;;;8.63;1.60;;;;;;;22.80;60.20;101129.63;6149432;23;20010;-90
2022/07/13 01:26:10;;;;;;;3.53;1.15;;;;;;;23.07;60.18;101130.31;6126653;23;20056;-90
2022/07/13 01:28:36;;;;;;;2.92;1.33;;;;;;;23.04;60.19;101125.28;6125656;23;20034;-90
2022/07/13 01:31:01;;;;;;;3.38;0.95;;;;;;;22.95;60.51;101124.44;6126276;23;20009;-92
2022/07/13 01:33:27;;;;;;;2.13;1.00;;;;;;;22.60;60.70;101130.94;6126489;23;20009;-91
2022/07/13 01:35:52;;;;;;;4.07;1.08;;;;;;;22.81;60.46;101125.09;6127143;23;20013;-96
2022/07/13 01:38:17;;;;;;;4.43;1.23;;;;;;;22.85;60.47;101115.72;6125540;23;20033;-87
2022/07/13 01:40:43;;;;;;;6.03;1.27;;;;;;;22.86;60.72;101120.91;6123574;23;20040;-88
2022/07/13 01:43:08;;;;;;;4.43;1.13;;;;;;;22.84;60.76;101124.78;6125679;23;20093;-88
2022/07/13 01:45:34;;;;;;;6.75;1.38;;;;;;;23.18;60.11;101121.91;6125510;23;20029;-87
2022/07/13 01:47:59;;;;;;;4.13;1.48;;;;;;;22.83;59.97;101126.63;6125313;23;20006;-88
2022/07/13 01:50:25;;;;;;;2.72;1.15;;;;;;;23.15;59.43;101124.97;6125042;23;20056;-88
2022/07/13 01:52:52;;;;;;;4.13;1.55;;;;;;;23.33;58.93;101122.09;6123282;23;20006;-88
2022/07/13 01:55:19;;;;;;;1.95;1.10;;;;;;;23.30;59.53;101131.31;6124955;23;20006;-88
2022/07/13 01:57:44;;;;;;;4.13;1.63;;;;;;;23.16;59.98;101130.16;6125288;23;20010;-87
2022/07/13 02:00:10;;;;;;;3.92;1.48;;;;;;;23.09;60.15;101117.59;6125051;23;20426;-88
2022/07/13 02:02:35;;;;;;;4.10;1.50;;;;;;;23.13;60.70;101129.66;6125130;23;20025;-88
2022/07/13 02:05:01;;;;;;;3.75;1.42;;;;;;;23.10;60.66;101129.97;6125226;23;20008;-88
2022/07/13 02:07:26;;;;;;;4.20;1.20;;;;;;;23.08;60.48;101126.63;6125100;23;20013;-88
2022/07/13 02:09:52;;;;;;;4.57;1.50;;;;;;;22.95;60.84;101122.59;6125413;23;20006;-87
2022/07/13 02:12:18;;;;;;;3.05;1.27;;;;;;;22.53;62.10;101120.03;6125408;23;20009;-87
2022/07/13 02:14:44;;;;;;;4.07;1.30;;;;;;;22.33;63.31;101123.03;6125151;23;20072;-88
2022/07/13 02:17:09;;;;;;;4.47;1.10;;;;;;;22.54;62.32;101113.72;6125138;23;20056;-88
2022/07/13 02:19:35;;;;;;;7.22;1.40;;;;;;;22.68;61.66;101121.06;6123458;23;20010;-88
2022/07/13 02:22:01;;;;;;;2.60;1.20;;;;;;;22.50;62.11;101120.41;6123359;23;20002;-88
2022/07/13 02:24:27;;;;;;;3.03;1.23;;;;;;;22.65;61.94;101112.53;6125060;23;20446;-88
2022/07/13 02:26:52;;;;;;;2.33;0.85;;;;;;;22.68;61.39;101114.88;6125090;23;20377;-88
2022/07/13 02:29:17;;;;;;;1.83;1.00;;;;;;;22.45;61.72;101114.69;6125266;23;20073;-88
2022/07/13 02:31:42;;;;;;;3.22;1.20;;;;;;;22.50;61.87;101110.53;6124872;23;20037;-87
2022/07/13 02:34:08;;;;;;;2.53;1.65;;;;;;;22.64;61.31;101118.91;6147488;23;20012;-88
2022/07/13 02:36:34;;;;;;;3.83;1.10;;;;;;;22.87;60.52;101119.91;6124910;23;20033;-88
2022/07/13 02:38:59;;;;;;;3.42;1.13;;;;;;;22.69;61.46;101121.91;6124605;23;20085;-88
2022/07/13 02:41:24;;;;;;;2.40;1.17;;;;;;;22.74;60.94;101128.44;6124791;23;20445;-88
2022/07/13 02:43:50;;;;;;;6.43;1.08;;;;;;;22.91;60.76;101120.44;6124783;23;20370;-87
2022/07/13 02:46:15;;;;;;;2.70;0.93;;;;;;;22.92;60.93;101117.56;6124635;23;20024;-87
2022/07/13 02:48:40;;;;;;;3.58;1.27;;;;;;;22.67;61.45;101115.88;6124790;23;20006;-87
2022/07/13 02:51:06;;;;;;;3.90;1.30;;;;;;;22.87;60.52;101114.56;6125131;23;20452;-87
2022/07/13 02:53:31;;;;;;;1.65;1.00;;;;;;;22.74;61.37;101111.53;6147951;23;20429;-87
2022/07/13 02:55:58;;;;;;;3.05;1.05;;;;;;;22.62;61.26;101103.00;6124770;23;20002;-87
2022/07/13 02:58:23;;;;;;;3.78;1.48;;;;;;;22.48;61.91;101109.84;6124686;23;20010;-87
2022/07/13 03:00:49;;;;;;;2.00;1.00;;;;;;;22.44;62.24;101108.50;6123072;23;20010;-87
2022/07/13 03:03:14;;;;;;;6.57;1.05;;;;;;;22.38;62.82;101106.50;6124406;23;20040;-87
2022/07/13 03:05:39;;;;;;;6.13;1.20;;;;;;;22.24;63.70;101101.75;6124760;23;20005;-87
2022/07/13 03:08:05;;;;;;;2.45;1.27;;;;;;;22.13;63.98;101103.72;6124805;23;20006;-87
2022/07/13 03:10:31;;;;;;;3.92;1.20;;;;;;;22.33;63.14;101108.81;6124823;23;20125;-87
2022/07/13 03:12:56;;;;;;;2.55;1.05;;;;;;;22.30;63.59;101109.16;6124557;23;20005;-87
2022/07/13 03:15:22;;;;;;;6.80;1.13;;;;;;;22.09;64.33;101104.22;6124546;23;20025;-87
2022/07/13 03:17:47;;;;;;;6.22;1.00;;;;;;;21.99;64.89;101093.66;6124598;23;20012;-86
2022/07/13 03:20:13;;;;;;;4.38;1.40;;;;;;;21.98;65.08;101103.50;6123752;23;20081;-87
2022/07/13 03:22:38;;;;;;;3.03;1.50;;;;;;;22.07;65.88;101103.53;6124129;23;20012;-87
2022/07/13 03:25:07;;;;;;;2.88;1.15;;;;;;;22.12;66.42;101104.72;6124246;23;20002;-87
2022/07/13 03:27:32;;;;;;;3.17;1.20;;;;;;;21.97;67.75;101106.34;6124486;23;20064;-87
2022/07/13 03:29:58;;;;;;;4.22;1.20;;;;;;;21.99;68.50;101109.69;6122267;23;20046;-87
2022/07/13 03:32:23;;;;;;;3.03;1.20;;;;;;;22.09;68.65;101110.38;6124179;23;20006;-87
2022/07/13 03:34:48;;;;;;;2.13;1.00;;;;;;;22.02;69.62;101103.19;6124236;23;20049;-87
2022/07/13 03:37:14;;;;;;;12.68;2.45;;;;;;;21.96;71.02;101107.38;6124484;23;20016;-87
2022/07/13 03:39:39;;;;;;;3.25;1.13;;;;;;;21.96;71.09;101118.06;6124691;23;20002;-87
2022/07/13 03:42:05;;;;;;;3.10;1.30;;;;;;;21.90;73.33;101114.19;6124884;23;20002;-87
2022/07/13 03:44:30;;;;;;;2.45;1.58;;;;;;;21.84;74.12;101106.81;6124458;23;20026;-87
2022/07/13 03:46:56;;;;;;;1.85;1.27;;;;;;;21.86;75.69;101120.84;6123699;23;20009;-87
2022/07/13 03:49:21;;;;;;;3.20;1.40;;;;;;;21.78;76.66;101118.97;6123914;23;20093;-87
2022/07/13 03:51:46;;;;;;;1.98;1.10;;;;;;;21.83;76.45;101126.50;6123782;23;20081;-87
2022/07/13 03:54:12;;;;;;;6.32;1.40;;;;;;;21.83;76.88;101128.34;6124789;23;20081;-87
2022/07/13 03:56:39;;;;;;;2.40;1.30;;;;;;;21.73;79.15;101129.31;6124451;23;20571;-87
2022/07/13 03:59:05;;;;;;;3.55;1.40;;;;;;;21.80;79.54;101129.53;6124522;23;20010;-87
2022/07/13 04:01:30;;;;;;;4.68;1.55;;;;;;;21.84;79.87;101130.88;6123688;23;20037;-87
2022/07/13 04:03:56;;;;;;;3.05;1.52;;;;;;;21.88;80.38;101131.38;6147214;23;20006;-87
2022/07/13 04:06:21;;;;;;;4.45;1.60;;;;;;;21.88;81.23;101139.38;6124191;23;20348;-87
2022/07/13 04:08:47;;;;;;;3.38;1.67;;;;;;;21.87;81.48;101137.72;6124725;23;20010;-87
2022/07/13 04:11:12;;;;;;;6.47;1.67;;;;;;;21.97;81.17;101136.59;6124223;23;20005;-87
2022/07/13 04:13:37;;;;;;;3.50;1.35;;;;;;;22.09;81.11;101142.47;6122419;23;20448;-87
2022/07/13 04:16:03;;;;;;;2.13;1.60;;;;;;;22.15;78.98;101133.81;6124473;23;20010;-87
2022/07/13 04:18:28;;;;;;;7.28;1.55;;;;;;;22.08;79.72;101143.50;6123956;23;20017;-87
2022/07/13 04:20:53;;;;;;;4.65;1.80;;;;;;;22.26;78.40;101147.94;6123884;23;20041;-87
2022/07/13 04:23:19;;;;;;;8.02;1.65;;;;;;;22.26;77.96;101140.75;6124245;23;20029;-87
2022/07/13 04:25:44;;;;;;;5.35;1.77;;;;;;;22.26;79.74;101142.59;6124456;23;20006;-88
2022/07/13 04:28:10;;;;;;;2.67;1.70;;;;;;;22.33;78.58;101148.94;6124007;23;19998;-88
2022/07/13 04:30:35;;;;;;;4.15;1.70;;;;;;;22.26;79.57;101153.28;6124238;23;20017;-87
2022/07/13 04:33:01;;;;;;;3.25;1.42;;;;;;;22.34;79.35;101150.63;6123923;23;20009;-87
2022/07/13 04:35:26;;;;;;;2.35;1.40;;;;;;;22.33;78.90;101151.63;6124325;23;19998;-87
2022/07/13 04:37:52;;;;;;;4.20;1.85;;;;;;;22.26;80.01;101142.59;6125683;23;20002;-87
2022/07/13 04:40:17;;;;;;;4.57;1.80;;;;;;;22.37;79.49;101151.16;6126239;23;20005;-88
2022/07/13 04:42:43;;;;;;;5.38;2.22;;;;;;;22.45;79.79;101147.63;6126104;23;20010;-88
2022/07/13 04:45:09;;;;;;;5.15;1.70;;;;;;;22.64;77.59;101143.00;6125356;23;20081;-88
2022/07/13 04:47:36;;;;;;;7.28;1.92;;;;;;;22.62;79.47;101140.47;6124027;23;19998;-88
2022/07/13 04:50:02;;;;;;;5.30;1.80;;;;;;;22.72;78.70;101146.50;6125643;23;20010;-88
2022/07/13 04:52:27;;;;;;;7.30;1.75;;;;;;;22.74;78.79;101152.53;6126285;23;20302;-88
2022/07/13 04:54:53;;;;;;;4.18;1.65;;;;;;;22.75;79.27;101148.88;6124065;23;20032;-88
2022/07/13 04:57:18;;;;;;;5.95;1.98;;;;;;;22.69;79.92;101148.66;6125964;23;20037;-88
2022/07/13 04:59:43;;;;;;;3.15;1.63;;;;;;;22.65;79.88;101147.31;6125747;23;20014;-88
2022/07/13 05:02:09;;;;;;;3.22;1.92;;;;;;;22.85;78.81;101148.69;6125213;23;20002;-88
2022/07/13 05:04:34;;;;;;;4.20;1.80;;;;;;;22.94;77.87;101146.84;6124330;23;20009;-88
2022/07/13 05:07:00;;;;;;;3.58;1.60;;;;;;;22.85;78.45;101151.38;6125603;23;20117;-88
2022/07/13 05:09:26;;;;;;;4.95;2.15;;;;;;;22.93;77.04;101146.03;6125183;23;20006;-88
2022/07/13 05:11:52;;;;;;;4.00;1.70;;;;;;;22.93;76.87;101140.66;6125823;23;20085;-88
2022/07/13 05:14:17;;;;;;;4.03;1.83;;;;;;;22.94;77.30;101149.53;6125506;23;20031;-87
2022/07/13 05:16:42;;;;;;;8.93;1.90;;;;;;;22.97;76.24;101155.41;6124165;23;20025;-88
2022/07/13 05:19:08;;;;;;;3.72;1.42;;;;;;;22.98;76.61;101150.88;6124729;23;20013;-88
2022/07/13 05:21:34;;;;;;;3.83;1.65;;;;;;;22.92;77.66;101154.22;6125666;23;20149;-88
2022/07/13 05:23:59;;;;;;;2.15;1.70;;;;;;;22.88;77.88;101153.72;6125290;23;20077;-88
2022/07/13 05:26:24;;;;;;;5.25;1.48;;;;;;;22.85;77.82;101158.56;6124378;23;20081;-87
2022/07/13 05:28:49;;;;;;;3.25;1.77;;;;;;;22.77;79.39;101151.38;6124418;23;20030;-87
2022/07/13 05:31:15;;;;;;;6.57;1.70;;;;;;;22.94;78.90;101158.41;6125524;23;20061;-88
2022/07/13 05:33:40;;;;;;;4.03;2.00;;;;;;;23.13;77.72;101162.63;6124979;23;20002;-88
2022/07/13 05:36:06;;;;;;;4.72;2.15;;;;;;;23.24;78.12;101164.09;6124810;23;20429;-88
2022/07/13 05:38:31;;;;;;;5.00;2.17;;;;;;;23.49;75.03;101156.03;6125531;23;20056;-88
2022/07/13 05:40:57;;;;;;;3.90;1.70;;;;;;;23.64;74.59;101159.69;6125273;23;20060;-87
2022/07/13 05:43:22;;;;;;;5.78;1.95;;;;;;;23.60;73.67;101153.00;6125276;23;20081;-88
2022/07/13 05:45:48;;;;;;;4.55;2.00;;;;;;;23.61;72.88;101159.22;6122439;23;20045;-88
2022/07/13 05:48:13;;;;;;;3.53;1.70;;;;;;;23.52;74.40;101155.72;6125215;23;20061;-87
2022/07/13 05:50:39;;;;;;;3.85;2.08;;;;;;;23.46;73.86;101157.22;6125001;23;20010;-88
2022/07/13 05:53:04;;;;;;;3.80;1.80;;;;;;;23.52;74.42;101153.03;6125309;23;20005;-88
2022/07/13 05:55:29;;;;;;;2.20;1.58;;;;;;;23.33;74.60;101157.75;6124990;23;20076;-88
2022/07/13 05:57:55;;;;;;;8.55;1.77;;;;;;;23.66;71.44;101162.22;6125410;23;20006;-88
2022/07/13 06:00:20;;;;;;;5.35;2.08;;;;;;;23.99;69.37;101162.13;6124850;23;20005;-88
2022/07/13 06:02:45;;;;;;;2.45;1.58;;;;;;;24.25;68.87;101173.41;6123853;23;20016;-88
2022/07/13 06:05:11;;;;;;;7.03;1.70;;;;;;;23.80;66.99;101177.63;6124618;23;20006;-88
2022/07/13 06:07:36;;;;;;;2.78;1.80;;;;;;;24.12;65.31;101182.00;6123415;23;20029;-88
2022/07/13 06:10:03;;;;;;;3.42;1.85;;;;;;;24.11;64.83;101188.41;6124617;23;20002;-87
2022/07/13 06:12:29;;;;;;;6.47;1.95;;;;;;;24.47;64.14;101185.22;6125198;23;20030;-86
2022/07/13 06:14:54;;;;;;;4.47;2.20;;;;;;;24.49;62.87;101185.88;6124450;23;20444;-87
2022/07/13 06:17:23;;;;;;;5.03;1.48;;;;;;;24.68;61.95;101189.13;6125058;23;20026;-86
2022/07/13 06:19:49;;;;;;;3.17;1.75;;;;;;;24.48;62.66;101186.88;6123033;23;20084;-86
2022/07/13 06:22:15;;;;;;;4.03;1.90;;;;;;;24.90;61.37;101188.31;6124159;23;20087;-85
2022/07/13 06:24:41;;;;;;;2.92;1.80;;;;;;;25.11;60.25;101195.69;6125497;23;20026;-86
2022/07/13 06:27:07;;;;;;;3.30;1.85;;;;;;;24.66;61.06;101196.53;6125186;23;20081;-86
2022/07/13 06:29:32;;;;;;;2.70;1.80;;;;;;;25.07;60.88;101199.75;6124793;23;20129;-86
2022/07/13 06:31:58;;;;;;;3.63;1.90;;;;;;;25.13;60.41;101200.88;6122574;23;20141;-86
2022/07/13 06:34:23;;;;;;;8.43;2.50;;;;;;;25.19;60.04;101197.47;6123554;23;20004;-87
2022/07/13 06:36:48;;;;;;;5.18;2.22;;;;;;;25.37;59.25;101204.41;6123317;23;20475;-87
2022/07/13 06:39:14;;;;;;;3.92;2.20;;;;;;;25.37;58.74;101199.03;6123503;23;20006;-86
2022/07/13 06:41:39;;;;;;;2.65;1.67;;;;;;;25.87;57.97;101210.94;6122893;23;20012;-88
2022/07/13 06:44:05;;;;;;;2.67;1.55;;;;;;;26.24;56.47;101201.13;6123421;23;20008;-87
2022/07/13 06:46:31;;;;;;;3.55;1.83;;;;;;;26.90;54.93;101188.41;6122746;23;20006;-87
2022/07/13 06:48:56;;;;;;;4.68;1.80;;;;;;;27.35;54.07;101200.84;6122832;23;20085;-87
2022/07/13 06:51:23;;;;;;;3.30;1.70;;;;;;;27.99;51.70;101202.53;6123551;23;19998;-86
2022/07/13 06:53:49;;;;;;;7.60;1.67;;;;;;;28.53;49.51;101195.50;6123831;23;20117;-86
2022/07/13 06:56:14;;;;;;;4.13;1.60;;;;;;;28.42;49.88;101200.44;6122999;23;20053;-87
2022/07/13 06:58:40;;;;;;;2.33;1.38;;;;;;;28.14;50.25;101200.53;6122603;23;20425;-86
2022/07/13 07:01:05;;;;;;;4.45;1.52;;;;;;;27.68;51.12;101206.47;6123397;23;20010;-86
2022/07/13 07:03:30;;;;;;;2.05;1.20;;;;;;;27.42;50.72;101210.66;6122879;23;20006;-87
2022/07/13 07:05:56;;;;;;;5.38;1.70;;;;;;;28.46;49.66;101204.38;6117255;23;20418;-87
2022/07/13 07:08:22;;;;;;;3.50;1.58;;;;;;;29.48;47.83;101204.31;6143547;23;20021;-87
2022/07/13 07:10:47;;;;;;;3.55;1.30;;;;;;;30.23;45.59;101206.63;6123574;23;20012;-87
2022/07/13 07:13:13;;;;;;;2.65;1.45;;;;;;;29.71;46.71;101208.47;6123202;23;20009;-88
2022/07/13 07:15:39;;;;;;;5.53;1.30;;;;;;;28.95;47.38;101204.28;6123738;23;20006;-87
2022/07/13 07:18:05;;;;;;;2.92;1.65;;;;;;;27.92;49.85;101210.59;6123818;23;20488;-87
2022/07/13 07:20:30;;;;;;;4.35;1.60;;;;;;;28.12;48.66;101204.44;6123034;23;20425;-87
2022/07/13 07:22:56;;;;;;;5.65;1.45;;;;;;;28.39;49.03;101198.13;6146856;23;19998;-86
2022/07/13 07:25:21;;;;;;;3.05;1.48;;;;;;;31.44;41.74;101207.53;6123051;23;20508;-86
2022/07/13 07:27:47;;;;;;;4.93;1.90;;;;;;;32.10;39.76;101206.03;6123954;23;20444;-87
2022/07/13 07:30:13;;;;;;;2.58;1.20;;;;;;;32.07;40.30;101195.66;6123950;23;20012;-87
2022/07/13 07:32:39;;;;;;;3.00;1.42;;;;;;;32.35;39.27;101195.06;6121733;23;20002;-87
2022/07/13 07:35:05;;;;;;;4.00;2.03;;;;;;;33.43;38.58;101186.91;6122754;23;20006;-87
2022/07/13 07:37:30;;;;;;;5.15;1.65;;;;;;;35.53;34.49;101187.28;6123841;23;20047;-87
2022/07/13 07:39:56;;;;;;;3.40;1.63;;;;;;;33.09;37.09;101186.66;6124297;23;20002;-87
2022/07/13 07:42:21;;;;;;;3.63;1.40;;;;;;;33.21;36.75;101194.84;6124169;23;19998;-87
2022/07/13 07:44:47;;;;;;;7.63;1.10;;;;;;;33.82;36.44;101200.03;6123931;23;20409;-87
2022/07/13 07:47:12;;;;;;;5.03;1.50;;;;;;;38.05;30.16;101188.41;6122623;23;20029;-87
2022/07/13 07:49:38;;;;;;;4.25;1.33;;;;;;;35.45;32.90;101201.34;6122185;23;20464;-87
2022/07/13 07:52:03;;;;;;;2.37;1.13;;;;;;;38.47;29.69;101201.19;6123808;23;20029;-87
2022/07/13 07:54:29;;;;;;;4.28;1.58;;;;;;;39.24;29.02;101206.69;6123757;23;20061;-87
2022/07/13 07:56:54;;;;;;;2.90;1.17;;;;;;;39.10;27.97;101210.28;6123453;23;20006;-87
2022/07/13 07:59:19;;;;;;;4.75;1.75;;;;;;;38.64;28.64;101220.13;6124337;23;20081;-87
2022/07/13 08:01:45;;;;;;;5.32;1.40;;;;;;;36.29;30.96;101217.50;6123744;23;20002;-87
2022/07/13 08:04:10;;;;;;;4.95;1.40;;;;;;;35.91;32.15;101210.22;6121907;23;20024;-87
2022/07/13 08:06:38;;;;;;;5.43;1.40;;;;;;;36.08;32.92;101221.06;6122768;23;20032;-87
2022/07/13 08:09:04;;;;;;;5.20;1.40;;;;;;;36.28;32.53;101221.34;6123983;23;20006;-87
2022/07/13 08:11:29;;;;;;;2.67;1.48;;;;;;;39.44;28.35;101221.53;6125883;23;20328;-87
2022/07/13 08:13:55;;;;;;;4.10;1.65;;;;;;;36.16;32.30;101219.81;6125660;23;20081;-74
2022/07/13 08:16:20;;;;;;;4.68;1.10;;;;;;;35.84;32.84;101224.03;6125470;23;20013;-76
2022/07/13 08:18:46;;;;;;;2.45;1.40;;;;;;;35.94;33.13;101216.00;6125773;23;20488;-76
2022/07/13 08:21:12;;;;;;;2.78;1.30;;;;;;;35.19;34.13;101222.00;6124936;23;20005;-76
2022/07/13 08:23:56;;;;;;;4.10;1.85;;;;;;;34.90;34.38;101225.59;6123711;23;20091;-76
2022/07/13 08:26:24;;;;;;;2.85;1.00;;;;;;;33.11;37.65;101228.06;6125080;23;20081;-76
2022/07/13 08:28:51;;;;;;;2.50;1.00;;;;;;;33.05;38.00;101231.69;6125713;23;20017;-76
2022/07/13 08:31:16;;;;;;;3.45;1.55;;;;;;;31.39;40.41;101226.38;6125356;23;20368;-75
2022/07/13 08:39:11;;;;;;;2.78;1.23;;;;;;;32.96;37.79;101235.81;6125409;23;20456;-74
2022/07/13 08:41:37;;;;;;;4.00;1.70;;;;;;;32.69;38.60;101225.34;6125531;23;20001;-74
2022/07/13 08:44:02;;;;;;;3.40;1.20;;;;;;;32.39;39.18;101225.31;6125041;23;20068;-75
2022/07/13 08:46:28;;;;;;;9.98;1.48;;;;;;;31.99;39.98;101233.91;6124906;23;20526;-74
2022/07/13 08:48:55;;;;;;;3.78;1.15;;;;;;;32.98;38.37;101239.97;6125148;23;20012;-74
2022/07/13 08:51:22;;;;;;;6.53;2.22;;;;;;;32.71;38.55;101238.72;6124191;23;20389;-74
2022/07/13 08:53:48;;;;;;;2.47;1.05;;;;;;;32.68;39.24;101242.72;6125020;23;20069;-74
2022/07/13 08:56:14;;;;;;;2.58;1.20;;;;;;;31.96;40.46;101247.97;6125790;23;20002;-74
2022/07/13 08:58:39;;;;;;;6.10;1.23;;;;;;;31.86;40.65;101250.38;6125113;23;20460;-74
2022/07/13 09:01:08;;;;;;;5.28;1.55;;;;;;;31.46;40.93;101243.47;6125064;23;20311;-75
2022/07/13 09:03:34;;;;;;;2.22;1.48;;;;;;;31.01;42.92;101244.41;6125276;23;20009;-75
2022/07/13 09:05:59;;;;;;;6.80;2.00;;;;;;;30.56;42.78;101247.16;6124335;23;20002;-74
2022/07/13 09:08:24;;;;;;;2.72;1.30;;;;;;;30.76;42.98;101244.31;6124678;23;20319;-74
2022/07/13 09:10:59;;;;;;;3.67;1.45;;;;;;;30.68;42.68;101247.31;6125372;23;20012;-76
2022/07/13 09:13:42;;;;;;;2.28;1.25;;;;;;;30.69;42.52;101243.56;6123829;23;20009;-75
2022/07/13 09:16:14;;;;;;;2.95;1.30;;;;;;;30.60;43.07;101250.25;6124658;23;19994;-76
2022/07/13 09:18:40;;;;;;;6.43;1.80;;;;;;;30.32;43.33;101254.16;6123861;23;20037;-76
2022/07/13 09:21:07;;;;;;;6.78;1.83;;;;;;;30.42;43.17;101249.09;6123206;23;20006;-76
2022/07/13 09:23:32;;;;;;;5.53;1.48;;;;;;;30.27;43.49;101253.91;6122444;23;20002;-76
2022/07/13 09:25:58;;;;;;;4.97;1.42;;;;;;;30.30;44.00;101250.78;6125053;23;20006;-76
2022/07/13 09:28:24;;;;;;;7.18;1.50;;;;;;;30.40;44.43;101253.06;6123612;23;20053;-73
2022/07/13 09:30:50;;;;;;;5.65;1.52;;;;;;;30.65;42.76;101247.75;6124217;23;20006;-76
2022/07/13 09:33:34;;;;;;;4.22;1.20;;;;;;;31.27;42.13;101252.56;6124153;23;20038;-76
2022/07/13 09:36:08;;;;;;;4.63;1.77;;;;;;;30.44;43.41;101252.41;6125153;23;20084;-76
2022/07/13 09:38:36;;;;;;;4.78;1.73;;;;;;;31.22;42.61;101259.50;6124911;23;20014;-76
2022/07/13 09:41:21;;;;;;;4.47;1.52;;;;;;;31.94;41.28;101252.78;6124858;23;20328;-76
2022/07/13 09:47:02;;;;;;;3.88;1.83;;;;;;;31.99;40.95;101259.22;6124843;23;20017;-76
2022/07/13 09:49:32;;;;;;;4.72;1.50;;;;;;;30.85;42.84;101261.19;6123603;23;20005;-76
2022/07/13 09:51:59;;;;;;;3.80;1.93;;;;;;;31.38;42.72;101271.69;6124988;23;20036;-76
2022/07/13 09:54:29;;;;;;;6.80;2.08;;;;;;;32.33;40.85;101272.44;6124663;23;20231;-76
2022/07/13 09:56:59;;;;;;;6.45;1.70;;;;;;;32.89;40.45;101265.84;6124952;23;20009;-76
2022/07/13 09:59:26;;;;;;;4.38;1.40;;;;;;;32.53;39.88;101274.91;6125061;23;20002;-76
2022/07/13 10:01:51;;;;;;;7.90;2.28;;;;;;;32.40;39.08;101282.16;6123623;23;20002;-76
2022/07/13 10:04:17;;;;;;;5.22;1.95;;;;;;;32.52;38.72;101281.38;6124165;23;20064;-76
2022/07/13 10:06:43;;;;;;;2.65;2.17;;;;;;;32.37;38.86;101288.06;6124743;23;20014;-76
2022/07/13 10:09:09;;;;;;;4.13;1.63;;;;;;;32.68;37.74;101291.66;6124194;23;20073;-76
2022/07/13 10:11:35;;;;;;;3.63;1.98;;;;;;;31.99;39.73;101290.97;6124609;23;20013;-76
2022/07/13 10:14:02;;;;;;;3.10;1.63;;;;;;;32.57;38.66;101289.72;6124681;23;20081;-76
2022/07/13 10:16:29;;;;;;;4.15;1.70;;;;;;;32.74;39.04;101290.75;6124232;23;20016;-76
2022/07/13 10:18:57;;;;;;;6.30;1.58;;;;;;;34.02;36.65;101286.81;6124036;23;20476;-76
2022/07/13 10:21:33;;;;;;;3.88;1.73;;;;;;;34.88;35.09;101295.97;6124827;23;20065;-76
2022/07/13 10:23:59;;;;;;;4.50;1.60;;;;;;;35.58;34.09;101285.66;6124189;23;20002;-76
2022/07/13 10:26:25;;;;;;;5.00;1.20;;;;;;;36.11;32.27;101286.16;6123938;23;20006;-76
2022/07/13 10:29:05;;;;;;;2.63;1.27;;;;;;;36.97;31.05;101277.31;6124347;23;20005;-75
2022/07/13 10:31:33;;;;;;;2.63;1.00;;;;;;;37.25;30.98;101287.16;6123959;23;20016;-76
2022/07/13 10:34:00;;;;;;;2.38;1.23;;;;;;;35.95;32.27;101271.47;6123642;23;20081;-76
2022/07/13 10:36:51;;;;;;;6.05;1.33;;;;;;;34.76;34.02;101282.38;6124280;23;20425;-76
2022/07/13 10:39:17;;;;;;;;;;;;;;;34.27;35.12;101290.13;6114684;23;20014;-76
2022/07/13 10:42:02;;;;;;;3.05;1.15;;;;;;;33.76;35.80;101280.81;6124052;23;19913;-76
2022/07/13 10:44:32;;;;;;;;;;;;;;;32.96;36.86;101293.78;6123785;23;20002;-76
2022/07/13 10:46:58;;;;;;;;;;;;;;;33.30;36.46;101279.69;6124262;23;19936;-76
2022/07/13 10:49:32;;;;;;;;;;;;;;;33.00;36.45;101281.38;6124483;23;19909;-76
2022/07/13 10:52:23;;;;;;;5.75;1.08;;;;;;;32.67;37.19;101281.84;6124575;23;19936;-76
2022/07/13 10:55:03;;;;;;;2.42;1.00;;;;;;;32.83;36.95;101271.38;6124288;23;20005;-76
2022/07/13 10:57:33;;;;;;;2.35;0.90;;;;;;;32.57;36.27;101271.53;6123828;23;20064;-76
2022/07/13 11:00:18;;;;;;;2.15;0.82;;;;;;;32.77;37.54;101273.97;6123488;23;20069;-76
2022/07/13 11:02:55;;;;;;;5.50;1.42;;;;;;;32.98;35.53;101267.19;6122213;23;20002;-76
2022/07/13 11:05:25;;;;;;;2.00;0.70;;;;;;;33.48;36.30;101268.69;6124085;23;20009;-76
2022/07/13 11:07:51;;;;;;;1.70;0.70;;;;;;;33.77;35.12;101266.94;6124396;23;20014;-76
2022/07/13 11:10:21;;;;;;;3.28;1.30;;;;;;;33.96;35.29;101267.63;6123878;23;20002;-76
2022/07/13 11:12:58;;;;;;;2.38;0.90;;;;;;;34.26;34.82;101271.28;6122074;23;20009;-76
2022/07/13 11:15:24;;;;;;;1.92;0.70;;;;;;;34.72;34.11;101261.31;6124065;23;20029;-75
2022/07/13 11:18:13;;;;;;;1.52;0.70;;;;;;;35.67;31.95;101262.34;6124151;23;20073;-76
2022/07/13 11:20:53;;;;;;;3.70;1.30;;;;;;;35.47;31.96;101265.59;6123834;23;20012;-76
2022/07/13 11:26:11;;;;;;;1.98;0.73;;;;;;;37.13;29.27;101256.41;6124054;23;20013;-76
2022/07/13 11:28:59;;;;;;;1.35;0.60;;;;;;;36.78;30.00;101256.88;6123461;23;20124;-75
2022/07/13 11:31:24;;;;;;;2.80;0.70;;;;;;;36.45;29.89;101255.97;6123233;23;20033;-76
2022/07/13 11:33:51;;;;;;;1.55;0.60;;;;;;;35.64;31.44;101248.34;6123001;23;20006;-75
2022/07/13 11:36:24;;;;;;;2.03;0.80;;;;;;;34.57;33.14;101259.06;6123819;23;20025;-76